Decoded Metar for KOJC (OLATHE/EXECUTIVE in KS, USA) (IATA:OJC) | Meteo·Mobile Aviation Weather
aviador You're here:

KOJC Decoded Metar

OLATHE/EXECUTIVE in KS, USA
Report Time2018-09-18 12:53:00
UTC Time2018-09-18 13:27:24
Flight Rules vfr VFR
Wind160° at 04 kt
W.Decomp.*RWY 18: 3.7 kt HW 1.6 kt LCW
W.Rank160° ranks 5
Current wind is below 160° avg. (8.2)
Visibility9999 m
Phenomena:N/A
Clouds:N/A
Expected CloudBase > 400 ft AGL from Temp-Dew spread
CeilingNone
Temp22°C (ISA +9)
Dew Point21°C (94% RH)
QNH1015 hPa
Density Alt2,398 ft
Elevation1,070 ft
Report Wrong Elevation
Raw Report
KOJC 181253Z 16004KT 10SM CLR 22/21 A2998 RMK AO2 SLP141
T02170206=

Extra information for KOJC:More info

Metar Taf Metar & Taf Last 4 Metars F.Rules Stats Wind Profile Meteogram Temp Stats Airport Information Weather charts Add Link Nearby VenuesMetar ALERT Operation Metar Decoded Social comments

AIRNAV info for KOJC